createdAt,value
2023-08-12T00:01:45.985Z,6.07
2023-08-12T00:04:49.114Z,5.97
2023-08-12T00:07:52.466Z,6.07
2023-08-12T00:10:55.478Z,6.50
2023-08-12T00:14:00.431Z,6.68
2023-08-12T00:17:03.703Z,7.47
2023-08-12T00:20:12.273Z,8.10
2023-08-12T00:23:15.856Z,8.25
2023-08-12T00:26:19.029Z,8.30
2023-08-12T00:29:23.822Z,8.65
2023-08-12T00:32:27.031Z,5.95
2023-08-12T00:35:30.144Z,6.80
2023-08-12T00:38:34.144Z,6.70
2023-08-12T00:41:37.235Z,9.93
2023-08-12T00:44:41.617Z,6.95
2023-08-12T00:47:46.619Z,7.45
2023-08-12T00:50:49.909Z,7.78
2023-08-12T00:53:53.326Z,6.95
2023-08-12T00:56:56.564Z,7.38
2023-08-12T01:00:02.371Z,8.30
2023-08-12T01:03:07.598Z,9.13
2023-08-12T01:06:10.880Z,7.32
2023-08-12T01:09:14.271Z,11.48
2023-08-12T01:12:26.843Z,10.93
2023-08-12T01:15:31.794Z,11.38
2023-08-12T01:18:35.342Z,9.32
2023-08-12T01:21:43.967Z,10.02
2023-08-12T01:24:48.384Z,10.15
2023-08-12T01:27:51.458Z,8.20
2023-08-12T01:31:00.488Z,7.55
2023-08-12T01:34:14.720Z,10.68
2023-08-12T01:37:25.814Z,6.93
2023-08-12T01:40:31.615Z,7.65
2023-08-12T01:43:35.444Z,11.05
2023-08-12T01:46:38.850Z,10.38
2023-08-12T01:49:42.072Z,13.95
2023-08-12T01:52:45.514Z,9.55
2023-08-12T01:55:52.584Z,9.18
2023-08-12T01:58:56.229Z,8.20
2023-08-12T02:01:59.378Z,8.73
2023-08-12T02:05:02.574Z,7.78
2023-08-12T02:08:08.405Z,8.07
2023-08-12T02:11:13.322Z,8.65
2023-08-12T02:14:16.583Z,7.50
2023-08-12T02:17:19.706Z,8.68
2023-08-12T02:20:22.991Z,7.95
2023-08-12T02:23:26.235Z,8.60
2023-08-12T02:26:30.653Z,9.13
2023-08-12T02:29:35.084Z,8.32
2023-08-12T02:32:38.166Z,7.97
2023-08-12T02:35:43.822Z,6.85
2023-08-12T02:38:47.019Z,7.60
2023-08-12T02:41:54.570Z,8.05
2023-08-12T02:44:57.637Z,7.07
2023-08-12T02:48:00.760Z,7.18
2023-08-12T02:51:04.396Z,7.15
2023-08-12T02:54:07.631Z,8.13
2023-08-12T02:57:12.194Z,6.47
2023-08-12T03:00:16.565Z,7.35
2023-08-12T03:03:19.634Z,7.20
2023-08-12T03:06:23.555Z,6.20
2023-08-12T03:09:26.740Z,6.65
2023-08-12T03:12:32.191Z,7.93
2023-08-12T03:15:35.384Z,7.03
2023-08-12T03:18:38.544Z,6.68
2023-08-12T03:21:42.475Z,7.00
2023-08-12T03:24:45.684Z,6.43
2023-08-12T03:27:50.159Z,7.28
2023-08-12T03:30:53.881Z,6.25
2023-08-12T03:33:59.791Z,7.15
2023-08-12T03:37:05.670Z,7.53
2023-08-12T03:40:11.363Z,8.55
2023-08-12T03:43:17.254Z,8.15
2023-08-12T03:46:21.954Z,7.50
2023-08-12T03:49:25.278Z,9.00
2023-08-12T03:52:30.127Z,9.20
2023-08-12T03:55:33.883Z,7.07
2023-08-12T03:58:38.792Z,8.18
2023-08-12T04:01:41.932Z,9.27
2023-08-12T04:04:47.695Z,9.70
2023-08-12T04:07:50.720Z,8.93
2023-08-12T04:10:54.105Z,9.82
2023-08-12T04:13:58.910Z,9.23
2023-08-12T04:17:02.523Z,9.95
2023-08-12T04:20:08.006Z,9.38
2023-08-12T04:23:12.747Z,9.85
2023-08-12T04:26:15.806Z,8.27
2023-08-12T04:29:20.252Z,8.20
2023-08-12T04:32:24.157Z,8.13
2023-08-12T04:35:27.294Z,7.50
2023-08-12T04:38:32.149Z,7.65
2023-08-12T04:41:37.133Z,7.30
2023-08-12T04:44:44.812Z,8.88
2023-08-12T04:47:48.069Z,6.90
2023-08-12T04:50:55.585Z,8.07
2023-08-12T04:53:58.888Z,10.95
2023-08-12T04:57:02.107Z,8.52
2023-08-12T05:00:09.336Z,8.80
2023-08-12T05:03:12.651Z,8.10
2023-08-12T05:06:15.883Z,9.30
2023-08-12T05:09:19.092Z,9.57
2023-08-12T05:12:22.508Z,8.20
2023-08-12T05:15:27.451Z,9.20
2023-08-12T05:18:32.093Z,13.95
2023-08-12T05:21:35.174Z,8.45
2023-08-12T05:24:38.474Z,7.18
2023-08-12T05:27:42.644Z,7.57
2023-08-12T05:30:47.972Z,7.03
2023-08-12T05:33:51.011Z,8.82
2023-08-12T05:36:54.068Z,7.65
2023-08-12T05:39:57.289Z,7.47
2023-08-12T05:43:00.296Z,6.47
2023-08-12T05:46:04.645Z,7.97
2023-08-12T05:49:07.788Z,5.60
2023-08-12T05:52:13.265Z,7.18
2023-08-12T05:55:16.885Z,12.23
2023-08-12T05:58:23.390Z,8.85
2023-08-12T06:01:28.090Z,6.60
2023-08-12T06:04:31.358Z,6.13
2023-08-12T06:07:34.514Z,6.07
2023-08-12T06:10:39.717Z,6.60
2023-08-12T06:13:45.682Z,8.27
2023-08-12T06:16:50.090Z,17.67
2023-08-12T06:19:53.144Z,5.93
2023-08-12T06:22:56.477Z,5.43
2023-08-12T06:25:59.511Z,6.93
2023-08-12T06:29:05.963Z,5.97
2023-08-12T06:32:14.188Z,5.40
2023-08-12T06:35:18.183Z,6.05
2023-08-12T06:38:21.242Z,5.40
2023-08-12T06:41:24.472Z,6.15
2023-08-12T06:44:28.620Z,5.85
2023-08-12T06:47:33.293Z,6.10
2023-08-12T06:50:36.835Z,6.15
2023-08-12T06:53:41.013Z,5.93
2023-08-12T06:56:44.112Z,6.10
2023-08-12T06:59:47.270Z,6.07
2023-08-12T07:02:51.715Z,6.03
2023-08-12T07:05:54.898Z,5.80
2023-08-12T07:08:58.312Z,6.00
2023-08-12T07:12:02.791Z,6.50
2023-08-12T07:15:07.034Z,9.57
2023-08-12T07:18:11.457Z,8.25
2023-08-12T07:21:14.480Z,6.57
2023-08-12T07:24:17.856Z,7.47
2023-08-12T07:27:20.997Z,5.13
2023-08-12T07:30:24.120Z,5.35
2023-08-12T07:33:28.555Z,5.70
2023-08-12T07:36:31.606Z,7.13
2023-08-12T07:39:34.769Z,6.25
2023-08-12T07:42:37.800Z,6.43
2023-08-12T07:45:41.047Z,5.90
2023-08-12T07:48:45.384Z,5.53
2023-08-12T07:51:48.712Z,5.30
2023-08-12T07:54:52.417Z,5.38
2023-08-12T07:57:55.764Z,6.32
2023-08-12T08:00:58.861Z,6.57
2023-08-12T08:04:03.247Z,5.60
2023-08-12T08:07:06.424Z,5.55
2023-08-12T08:10:10.785Z,5.10
2023-08-12T08:13:13.929Z,5.53
2023-08-12T08:16:17.200Z,5.90
2023-08-12T08:19:21.789Z,7.32
2023-08-12T08:22:25.038Z,8.65
2023-08-12T08:25:28.167Z,5.72
2023-08-12T08:28:31.216Z,6.10
2023-08-12T08:31:34.462Z,5.20
2023-08-12T08:34:39.915Z,6.32
2023-08-12T08:37:44.639Z,6.22
2023-08-12T08:40:47.916Z,6.60
2023-08-12T08:43:51.576Z,5.65
2023-08-12T08:47:00.608Z,5.93
2023-08-12T08:50:06.867Z,7.63
2023-08-12T08:53:10.066Z,5.85
2023-08-12T08:56:15.004Z,6.85
2023-08-12T08:59:19.013Z,5.80
2023-08-12T09:02:23.073Z,7.00
2023-08-12T09:05:28.548Z,6.18
2023-08-12T09:08:33.650Z,6.55
2023-08-12T09:11:37.185Z,6.13
2023-08-12T09:14:40.284Z,6.13
2023-08-12T09:17:45.776Z,6.20
2023-08-12T09:20:50.142Z,6.18
2023-08-12T09:23:53.353Z,6.20
2023-08-12T09:26:57.065Z,6.93
2023-08-12T09:30:00.436Z,6.43
2023-08-12T09:33:08.172Z,5.97
2023-08-12T09:36:12.814Z,5.82
2023-08-12T09:39:15.853Z,6.97
2023-08-12T09:42:20.148Z,5.88
2023-08-12T09:45:26.434Z,5.70
2023-08-12T09:48:29.900Z,6.05
2023-08-12T09:51:41.884Z,6.15
2023-08-12T09:54:45.815Z,7.47
2023-08-12T09:57:53.835Z,7.10
2023-08-12T10:00:57.199Z,7.85
2023-08-12T10:04:00.280Z,6.60
2023-08-12T10:07:05.859Z,8.93
2023-08-12T10:10:12.152Z,6.72
2023-08-12T10:13:15.914Z,7.18
2023-08-12T10:16:20.003Z,8.60
2023-08-12T10:19:27.190Z,6.30
2023-08-12T10:22:32.894Z,6.15
2023-08-12T10:25:37.207Z,8.40
2023-08-12T10:28:40.256Z,8.27
2023-08-12T10:31:45.723Z,7.53
2023-08-12T10:34:57.621Z,10.05
2023-08-12T10:38:02.095Z,10.43
2023-08-12T10:41:22.006Z,8.27
2023-08-12T10:44:29.576Z,7.55
2023-08-12T10:47:33.498Z,6.22
2023-08-12T10:50:37.060Z,7.03
2023-08-12T10:53:41.487Z,6.07
2023-08-12T10:57:09.142Z,6.88
2023-08-12T11:00:18.470Z,7.22
2023-08-12T11:03:21.719Z,7.50
2023-08-12T11:06:24.718Z,5.63
2023-08-12T11:09:30.057Z,5.97
2023-08-12T11:12:35.845Z,6.30
2023-08-12T11:15:43.541Z,6.00
2023-08-12T11:18:46.868Z,7.70
2023-08-12T11:21:50.294Z,6.45
2023-08-12T11:24:55.274Z,5.95
2023-08-12T11:27:58.936Z,6.60
2023-08-12T11:31:04.758Z,7.63
2023-08-12T11:34:13.130Z,6.20
2023-08-12T11:37:17.145Z,7.15
2023-08-12T11:40:23.588Z,5.68
2023-08-12T11:43:28.274Z,5.10
2023-08-12T11:46:35.069Z,5.88
2023-08-12T11:49:38.526Z,5.47
2023-08-12T11:52:42.511Z,5.97
2023-08-12T11:55:47.072Z,5.25
2023-08-12T11:58:53.653Z,5.53
2023-08-12T12:01:57.336Z,4.93
2023-08-12T12:05:00.436Z,4.95
2023-08-12T12:08:06.273Z,5.53
2023-08-12T12:11:11.131Z,5.03
2023-08-12T12:14:16.892Z,5.50
2023-08-12T12:17:19.982Z,5.25
2023-08-12T12:20:23.696Z,5.25
2023-08-12T12:23:35.436Z,6.28
2023-08-12T12:26:40.096Z,5.95
2023-08-12T12:29:43.462Z,6.10
2023-08-12T12:32:47.028Z,5.18
2023-08-12T12:35:57.736Z,6.22
2023-08-12T12:39:01.109Z,6.22
2023-08-12T12:42:05.690Z,5.63
2023-08-12T12:45:11.003Z,6.40
2023-08-12T12:48:16.888Z,5.88
2023-08-12T12:51:19.925Z,5.47
2023-08-12T12:54:23.208Z,6.60
2023-08-12T12:57:27.787Z,6.13
2023-08-12T13:00:33.592Z,6.53
2023-08-12T13:03:39.007Z,6.22
2023-08-12T13:06:45.173Z,5.70
2023-08-12T13:09:48.238Z,5.50
2023-08-12T13:12:52.584Z,6.03
2023-08-12T13:15:55.610Z,5.70
2023-08-12T13:19:02.566Z,5.82
2023-08-12T13:22:10.344Z,6.38
2023-08-12T13:25:13.727Z,5.57
2023-08-12T13:28:18.642Z,5.25
2023-08-12T13:31:21.786Z,6.53
2023-08-12T13:34:31.137Z,5.20
2023-08-12T13:37:34.794Z,5.03
2023-08-12T13:40:37.823Z,5.95
2023-08-12T13:43:53.762Z,5.72
2023-08-12T13:46:56.862Z,7.97
2023-08-12T13:49:59.899Z,8.63
2023-08-12T13:53:02.927Z,6.07
2023-08-12T13:56:08.090Z,5.63
2023-08-12T13:59:12.500Z,5.18
2023-08-12T14:02:15.732Z,4.80
2023-08-12T14:05:20.934Z,4.82
2023-08-12T14:08:24.085Z,4.00
2023-08-12T14:11:27.340Z,5.63
2023-08-12T14:14:32.630Z,4.20
2023-08-12T14:17:35.827Z,4.47
2023-08-12T14:20:39.047Z,3.53
2023-08-12T14:23:44.111Z,4.05
2023-08-12T14:26:47.426Z,3.45
2023-08-12T14:29:51.771Z,4.57
2023-08-12T14:32:54.926Z,5.75
2023-08-12T14:36:00.011Z,5.55
2023-08-12T14:39:03.191Z,10.85
2023-08-12T14:42:11.054Z,7.72
2023-08-12T14:45:15.449Z,22.17
2023-08-12T14:48:22.237Z,4.20
2023-08-12T14:51:30.538Z,4.28
2023-08-12T14:54:33.650Z,4.35
2023-08-12T14:57:36.864Z,4.75
2023-08-12T15:00:41.244Z,5.03
2023-08-12T15:03:44.871Z,4.10
2023-08-12T15:06:47.978Z,7.78
2023-08-12T15:09:53.043Z,4.13
2023-08-12T15:12:56.141Z,4.00
2023-08-12T15:16:00.676Z,4.45
2023-08-12T15:19:04.558Z,5.35
2023-08-12T15:22:07.674Z,4.55
2023-08-12T15:25:13.736Z,4.38
2023-08-12T15:28:17.089Z,4.03
2023-08-12T15:31:22.506Z,4.70
2023-08-12T15:34:26.103Z,5.95
2023-08-12T15:37:32.090Z,4.95
2023-08-12T15:40:35.120Z,4.18
2023-08-12T15:43:38.259Z,5.38
2023-08-12T15:46:43.314Z,4.93
2023-08-12T15:49:46.358Z,5.88
2023-08-12T15:52:49.396Z,4.90
2023-08-12T15:55:52.426Z,5.22
2023-08-12T15:58:55.589Z,4.55
2023-08-12T16:02:03.269Z,7.38
2023-08-12T16:05:09.514Z,4.10
2023-08-12T16:08:15.978Z,4.45
2023-08-12T16:11:23.504Z,5.60
2023-08-12T16:14:27.804Z,4.88
2023-08-12T16:17:32.923Z,6.55
2023-08-12T16:20:38.497Z,5.53
2023-08-12T16:23:41.867Z,7.57
2023-08-12T16:26:45.361Z,6.72
2023-08-12T16:29:48.518Z,8.18
2023-08-12T16:32:53.013Z,6.80
2023-08-12T16:35:56.081Z,6.65
2023-08-12T16:44:47.132Z,6.88
2023-08-12T16:47:54.505Z,6.22
2023-08-12T16:50:57.851Z,7.32
2023-08-12T16:54:01.517Z,8.35
2023-08-12T16:57:04.808Z,7.45
2023-08-12T17:00:19.224Z,6.07
2023-08-12T17:03:25.853Z,4.80
2023-08-12T17:06:35.149Z,5.78
2023-08-12T17:09:38.660Z,6.57
2023-08-12T17:12:41.867Z,6.15
2023-08-12T17:16:01.138Z,5.22
2023-08-12T17:20:01.329Z,8.55
2023-08-12T17:23:05.417Z,5.20
2023-08-12T17:26:08.658Z,5.70
2023-08-12T17:29:11.769Z,5.50
2023-08-12T17:32:20.673Z,5.53
2023-08-12T17:35:25.056Z,5.45
2023-08-12T17:38:29.321Z,6.85
2023-08-12T17:41:35.277Z,6.05
2023-08-12T17:44:38.959Z,6.65
2023-08-12T17:48:54.767Z,6.30
2023-08-12T18:08:04.586Z,5.78
2023-08-12T18:14:52.365Z,6.95
2023-08-12T18:17:55.553Z,5.97
2023-08-12T18:20:58.713Z,6.85
2023-08-12T18:24:01.795Z,6.40
2023-08-12T18:27:51.635Z,7.68
2023-08-12T19:36:18.820Z,11.57
2023-08-12T19:39:43.862Z,10.38
2023-08-12T19:42:55.341Z,8.60
2023-08-12T19:45:59.291Z,11.85
2023-08-12T19:49:03.863Z,9.82
2023-08-12T19:52:10.586Z,11.50
2023-08-12T19:55:15.871Z,18.58
2023-08-12T19:58:18.978Z,7.93
2023-08-12T20:01:22.155Z,9.55
2023-08-12T20:04:25.545Z,8.88
2023-08-12T20:07:30.178Z,7.60
2023-08-12T20:10:36.270Z,8.13
2023-08-12T20:13:39.428Z,10.75
2023-08-12T20:16:42.699Z,10.27
2023-08-12T20:19:48.666Z,8.68
2023-08-12T20:23:05.614Z,10.13
2023-08-12T20:26:10.734Z,12.40
2023-08-12T20:29:13.865Z,15.18
2023-08-12T20:32:17.293Z,18.98
2023-08-12T20:35:25.372Z,17.00
2023-08-12T20:38:32.309Z,10.90
2023-08-12T20:41:35.455Z,11.60
2023-08-12T20:44:38.547Z,10.70
2023-08-12T20:47:46.070Z,9.38
2023-08-12T21:04:20.482Z,11.43
2023-08-12T21:13:54.578Z,9.32
2023-08-12T21:17:00.212Z,10.98
2023-08-12T21:20:05.222Z,10.05
2023-08-12T21:23:10.259Z,9.90
2023-08-12T21:26:13.950Z,11.00
2023-08-12T21:29:18.782Z,10.65
2023-08-12T21:32:22.895Z,10.18
2023-08-12T22:03:32.534Z,13.50
2023-08-12T22:07:20.238Z,16.08
2023-08-12T22:10:31.875Z,16.00
2023-08-12T22:13:36.152Z,14.85
2023-08-12T22:16:40.255Z,12.38
2023-08-12T22:20:41.360Z,12.68
2023-08-12T22:24:39.076Z,12.20
2023-08-12T22:27:51.756Z,9.77
2023-08-12T22:31:17.169Z,9.18
2023-08-12T22:35:36.136Z,8.00
2023-08-12T22:38:54.496Z,8.45
2023-08-12T22:42:23.468Z,8.35
2023-08-12T22:45:32.572Z,6.32
2023-08-12T22:49:10.210Z,9.50
2023-08-12T22:53:00.753Z,8.35
2023-08-12T22:56:14.916Z,6.78
2023-08-12T23:01:09.112Z,6.00
2023-08-12T23:05:01.465Z,5.65
2023-08-12T23:08:26.181Z,6.50
2023-08-12T23:11:40.567Z,5.30
2023-08-12T23:14:52.965Z,5.53
2023-08-12T23:18:04.001Z,6.18
2023-08-12T23:21:51.726Z,5.90
2023-08-12T23:29:05.678Z,5.85
2023-08-12T23:33:28.731Z,6.43
